sensor_id;sensor_type;location;lat;lon;timestamp;P1;durP1;ratioP1;P2;durP2;ratioP2
9986;SDS011;5033;46.310;11.214;2022-12-07T00:01:35;4.47;;;4.18;;
9986;SDS011;5033;46.310;11.214;2022-12-07T00:04:06;3.83;;;3.63;;
9986;SDS011;5033;46.310;11.214;2022-12-07T00:06:37;3.83;;;3.60;;
9986;SDS011;5033;46.310;11.214;2022-12-07T00:09:08;4.30;;;4.00;;
9986;SDS011;5033;46.310;11.214;2022-12-07T00:11:37;4.22;;;3.92;;
9986;SDS011;5033;46.310;11.214;2022-12-07T00:14:06;4.28;;;4.07;;
9986;SDS011;5033;46.310;11.214;2022-12-07T00:16:38;4.35;;;4.13;;
9986;SDS011;5033;46.310;11.214;2022-12-07T00:19:06;3.90;;;3.60;;
9986;SDS011;5033;46.310;11.214;2022-12-07T00:21:33;4.38;;;4.07;;
9986;SDS011;5033;46.310;11.214;2022-12-07T00:24:02;4.30;;;4.00;;
9986;SDS011;5033;46.310;11.214;2022-12-07T00:26:30;4.35;;;4.03;;
9986;SDS011;5033;46.310;11.214;2022-12-07T00:29:00;4.25;;;3.95;;
9986;SDS011;5033;46.310;11.214;2022-12-07T00:31:29;4.10;;;3.90;;
9986;SDS011;5033;46.310;11.214;2022-12-07T00:34:02;4.03;;;3.78;;
9986;SDS011;5033;46.310;11.214;2022-12-07T00:36:29;4.10;;;3.83;;
9986;SDS011;5033;46.310;11.214;2022-12-07T00:38:57;3.95;;;3.65;;
9986;SDS011;5033;46.310;11.214;2022-12-07T00:41:28;4.65;;;4.30;;
9986;SDS011;5033;46.310;11.214;2022-12-07T00:43:56;4.35;;;4.05;;
9986;SDS011;5033;46.310;11.214;2022-12-07T00:46:24;3.53;;;3.30;;
9986;SDS011;5033;46.310;11.214;2022-12-07T00:48:51;4.10;;;3.85;;
9986;SDS011;5033;46.310;11.214;2022-12-07T00:51:22;3.90;;;3.70;;
9986;SDS011;5033;46.310;11.214;2022-12-07T00:53:51;3.90;;;3.60;;
9986;SDS011;5033;46.310;11.214;2022-12-07T00:56:19;4.15;;;3.85;;
9986;SDS011;5033;46.310;11.214;2022-12-07T00:58:51;3.65;;;3.45;;
9986;SDS011;5033;46.310;11.214;2022-12-07T01:01:19;3.85;;;3.65;;
9986;SDS011;5033;46.310;11.214;2022-12-07T01:03:47;4.15;;;3.78;;
9986;SDS011;5033;46.310;11.214;2022-12-07T01:06:15;3.90;;;3.70;;
9986;SDS011;5033;46.310;11.214;2022-12-07T01:08:44;3.67;;;3.47;;
9986;SDS011;5033;46.310;11.214;2022-12-07T01:11:13;4.47;;;4.00;;
9986;SDS011;5033;46.310;11.214;2022-12-07T01:13:41;4.20;;;4.00;;
9986;SDS011;5033;46.310;11.214;2022-12-07T01:16:10;4.22;;;3.92;;
9986;SDS011;5033;46.310;11.214;2022-12-07T01:18:40;3.83;;;3.63;;
9986;SDS011;5033;46.310;11.214;2022-12-07T01:21:09;4.40;;;4.10;;
9986;SDS011;5033;46.310;11.214;2022-12-07T01:23:38;4.20;;;3.90;;
9986;SDS011;5033;46.310;11.214;2022-12-07T01:26:07;4.32;;;4.03;;
9986;SDS011;5033;46.310;11.214;2022-12-07T01:28:37;3.95;;;3.75;;
9986;SDS011;5033;46.310;11.214;2022-12-07T01:31:05;4.40;;;4.10;;
9986;SDS011;5033;46.310;11.214;2022-12-07T01:33:35;3.67;;;3.47;;
9986;SDS011;5033;46.310;11.214;2022-12-07T01:36:04;4.20;;;3.97;;
9986;SDS011;5033;46.310;11.214;2022-12-07T01:38:33;4.18;;;3.92;;
9986;SDS011;5033;46.310;11.214;2022-12-07T01:41:01;4.30;;;4.10;;
9986;SDS011;5033;46.310;11.214;2022-12-07T01:43:31;4.30;;;4.00;;
9986;SDS011;5033;46.310;11.214;2022-12-07T01:46:00;4.20;;;4.00;;
9986;SDS011;5033;46.310;11.214;2022-12-07T01:48:29;4.15;;;3.90;;
9986;SDS011;5033;46.310;11.214;2022-12-07T01:51:00;4.13;;;3.83;;
9986;SDS011;5033;46.310;11.214;2022-12-07T01:53:31;3.97;;;3.78;;
9986;SDS011;5033;46.310;11.214;2022-12-07T01:56:00;4.78;;;4.47;;
9986;SDS011;5033;46.310;11.214;2022-12-07T01:58:28;4.30;;;4.00;;
9986;SDS011;5033;46.310;11.214;2022-12-07T02:00:58;4.30;;;4.05;;
9986;SDS011;5033;46.310;11.214;2022-12-07T02:03:27;4.10;;;3.90;;
9986;SDS011;5033;46.310;11.214;2022-12-07T02:05:58;3.85;;;3.65;;
9986;SDS011;5033;46.310;11.214;2022-12-07T02:08:26;3.97;;;3.75;;
9986;SDS011;5033;46.310;11.214;2022-12-07T02:10:54;4.40;;;4.10;;
9986;SDS011;5033;46.310;11.214;2022-12-07T02:13:22;3.90;;;3.70;;
9986;SDS011;5033;46.310;11.214;2022-12-07T02:19:10;3.90;;;3.70;;
9986;SDS011;5033;46.310;11.214;2022-12-07T02:21:56;3.92;;;3.60;;
9986;SDS011;5033;46.310;11.214;2022-12-07T02:24:35;3.65;;;3.45;;
9986;SDS011;5033;46.310;11.214;2022-12-07T02:30:08;4.03;;;3.83;;
9986;SDS011;5033;46.310;11.214;2022-12-07T02:32:41;4.30;;;3.95;;
9986;SDS011;5033;46.310;11.214;2022-12-07T02:35:17;4.20;;;3.90;;
9986;SDS011;5033;46.310;11.214;2022-12-07T02:37:48;4.13;;;3.83;;
9986;SDS011;5033;46.310;11.214;2022-12-07T02:40:25;3.47;;;3.28;;
9986;SDS011;5033;46.310;11.214;2022-12-07T02:43:00;4.20;;;3.90;;
9986;SDS011;5033;46.310;11.214;2022-12-07T02:45:33;3.92;;;3.72;;
9986;SDS011;5033;46.310;11.214;2022-12-07T02:48:04;4.00;;;3.70;;
9986;SDS011;5033;46.310;11.214;2022-12-07T02:50:33;4.00;;;3.78;;
9986;SDS011;5033;46.310;11.214;2022-12-07T02:53:00;3.63;;;3.42;;
9986;SDS011;5033;46.310;11.214;2022-12-07T02:55:29;3.70;;;3.50;;
9986;SDS011;5033;46.310;11.214;2022-12-07T03:00:58;3.60;;;3.35;;
9986;SDS011;5033;46.310;11.214;2022-12-07T03:03:33;4.00;;;3.80;;
9986;SDS011;5033;46.310;11.214;2022-12-07T03:06:06;3.90;;;3.70;;
9986;SDS011;5033;46.310;11.214;2022-12-07T03:08:45;4.25;;;3.95;;
9986;SDS011;5033;46.310;11.214;2022-12-07T03:11:21;3.58;;;3.38;;
9986;SDS011;5033;46.310;11.214;2022-12-07T03:13:54;4.03;;;3.72;;
9986;SDS011;5033;46.310;11.214;2022-12-07T03:16:31;3.80;;;3.60;;
9986;SDS011;5033;46.310;11.214;2022-12-07T03:19:04;4.25;;;4.05;;
9986;SDS011;5033;46.310;11.214;2022-12-07T03:21:36;3.97;;;3.78;;
9986;SDS011;5033;46.310;11.214;2022-12-07T03:24:07;3.88;;;3.67;;
9986;SDS011;5033;46.310;11.214;2022-12-07T03:26:39;3.28;;;3.08;;
9986;SDS011;5033;46.310;11.214;2022-12-07T03:29:10;3.85;;;3.65;;
9986;SDS011;5033;46.310;11.214;2022-12-07T03:31:43;3.85;;;3.65;;
9986;SDS011;5033;46.310;11.214;2022-12-07T03:34:15;3.90;;;3.70;;
9986;SDS011;5033;46.310;11.214;2022-12-07T03:36:47;3.70;;;3.50;;
9986;SDS011;5033;46.310;11.214;2022-12-07T03:39:19;3.55;;;3.35;;
9986;SDS011;5033;46.310;11.214;2022-12-07T03:41:50;4.05;;;3.85;;
9986;SDS011;5033;46.310;11.214;2022-12-07T03:44:18;4.10;;;3.80;;
9986;SDS011;5033;46.310;11.214;2022-12-07T03:46:49;3.90;;;3.70;;
9986;SDS011;5033;46.310;11.214;2022-12-07T03:49:25;3.88;;;3.58;;
9986;SDS011;5033;46.310;11.214;2022-12-07T03:52:00;4.00;;;3.70;;
9986;SDS011;5033;46.310;11.214;2022-12-07T03:54:36;3.92;;;3.63;;
9986;SDS011;5033;46.310;11.214;2022-12-07T03:57:09;4.18;;;3.92;;
9986;SDS011;5033;46.310;11.214;2022-12-07T03:59:38;4.47;;;4.18;;
9986;SDS011;5033;46.310;11.214;2022-12-07T04:02:08;3.80;;;3.60;;
9986;SDS011;5033;46.310;11.214;2022-12-07T04:04:39;3.63;;;3.42;;
9986;SDS011;5033;46.310;11.214;2022-12-07T04:07:07;3.85;;;3.65;;
9986;SDS011;5033;46.310;11.214;2022-12-07T04:09:35;4.05;;;3.85;;
9986;SDS011;5033;46.310;11.214;2022-12-07T04:12:03;3.90;;;3.60;;
9986;SDS011;5033;46.310;11.214;2022-12-07T04:14:31;3.80;;;3.50;;
9986;SDS011;5033;46.310;11.214;2022-12-07T04:16:58;4.25;;;3.95;;
9986;SDS011;5033;46.310;11.214;2022-12-07T04:19:28;3.92;;;3.72;;
9986;SDS011;5033;46.310;11.214;2022-12-07T04:21:58;4.32;;;4.03;;
9986;SDS011;5033;46.310;11.214;2022-12-07T04:24:27;3.58;;;3.38;;
9986;SDS011;5033;46.310;11.214;2022-12-07T04:26:54;3.88;;;3.63;;
9986;SDS011;5033;46.310;11.214;2022-12-07T04:29:22;3.95;;;3.65;;
9986;SDS011;5033;46.310;11.214;2022-12-07T04:31:50;3.55;;;3.35;;
9986;SDS011;5033;46.310;11.214;2022-12-07T04:34:18;4.05;;;3.78;;
9986;SDS011;5033;46.310;11.214;2022-12-07T04:36:49;4.03;;;3.83;;
9986;SDS011;5033;46.310;11.214;2022-12-07T04:39:18;3.90;;;3.70;;
9986;SDS011;5033;46.310;11.214;2022-12-07T04:41:47;3.85;;;3.65;;
9986;SDS011;5033;46.310;11.214;2022-12-07T04:44:16;3.65;;;3.45;;
9986;SDS011;5033;46.310;11.214;2022-12-07T04:46:44;4.18;;;3.88;;
9986;SDS011;5033;46.310;11.214;2022-12-07T04:49:12;3.80;;;3.50;;
9986;SDS011;5033;46.310;11.214;2022-12-07T04:51:40;3.70;;;3.50;;
9986;SDS011;5033;46.310;11.214;2022-12-07T04:54:09;3.85;;;3.65;;
9986;SDS011;5033;46.310;11.214;2022-12-07T04:56:36;4.45;;;4.15;;
9986;SDS011;5033;46.310;11.214;2022-12-07T04:59:04;4.15;;;3.75;;
9986;SDS011;5033;46.310;11.214;2022-12-07T05:01:32;3.80;;;3.60;;
9986;SDS011;5033;46.310;11.214;2022-12-07T05:04:00;4.13;;;3.92;;
9986;SDS011;5033;46.310;11.214;2022-12-07T05:06:27;4.35;;;4.10;;
9986;SDS011;5033;46.310;11.214;2022-12-07T05:08:55;4.32;;;4.03;;
9986;SDS011;5033;46.310;11.214;2022-12-07T05:11:23;4.15;;;3.95;;
9986;SDS011;5033;46.310;11.214;2022-12-07T05:14:07;3.78;;;3.58;;
9986;SDS011;5033;46.310;11.214;2022-12-07T05:16:36;4.03;;;3.83;;
9986;SDS011;5033;46.310;11.214;2022-12-07T05:19:04;4.15;;;3.95;;
9986;SDS011;5033;46.310;11.214;2022-12-07T05:21:32;3.88;;;3.67;;
9986;SDS011;5033;46.310;11.214;2022-12-07T05:23:59;4.20;;;3.90;;
9986;SDS011;5033;46.310;11.214;2022-12-07T05:26:27;3.97;;;3.67;;
9986;SDS011;5033;46.310;11.214;2022-12-07T05:28:56;4.47;;;4.18;;
9986;SDS011;5033;46.310;11.214;2022-12-07T05:31:25;4.30;;;4.00;;
9986;SDS011;5033;46.310;11.214;2022-12-07T05:33:53;5.47;;;5.07;;
9986;SDS011;5033;46.310;11.214;2022-12-07T05:36:20;5.88;;;5.45;;
9986;SDS011;5033;46.310;11.214;2022-12-07T05:38:48;7.32;;;6.72;;
9986;SDS011;5033;46.310;11.214;2022-12-07T05:41:17;6.97;;;6.47;;
9986;SDS011;5033;46.310;11.214;2022-12-07T05:44:03;7.80;;;7.20;;
9986;SDS011;5033;46.310;11.214;2022-12-07T05:46:31;7.45;;;6.85;;
9986;SDS011;5033;46.310;11.214;2022-12-07T05:48:59;6.13;;;5.72;;
9986;SDS011;5033;46.310;11.214;2022-12-07T05:51:27;5.90;;;5.50;;
9986;SDS011;5033;46.310;11.214;2022-12-07T05:53:54;5.72;;;5.32;;
9986;SDS011;5033;46.310;11.214;2022-12-07T05:56:22;5.22;;;4.93;;
9986;SDS011;5033;46.310;11.214;2022-12-07T05:58:49;4.88;;;4.57;;
9986;SDS011;5033;46.310;11.214;2022-12-07T06:01:35;5.10;;;4.78;;
9986;SDS011;5033;46.310;11.214;2022-12-07T06:04:02;4.70;;;4.40;;
9986;SDS011;5033;46.310;11.214;2022-12-07T06:06:30;5.60;;;5.10;;
9986;SDS011;5033;46.310;11.214;2022-12-07T06:08:57;5.88;;;5.47;;
9986;SDS011;5033;46.310;11.214;2022-12-07T06:11:24;5.63;;;5.25;;
9986;SDS011;5033;46.310;11.214;2022-12-07T06:14:09;5.95;;;5.55;;
9986;SDS011;5033;46.310;11.214;2022-12-07T06:16:38;5.85;;;5.45;;
9986;SDS011;5033;46.310;11.214;2022-12-07T06:19:06;5.10;;;4.80;;
9986;SDS011;5033;46.310;11.214;2022-12-07T06:21:33;5.40;;;5.10;;
9986;SDS011;5033;46.310;11.214;2022-12-07T06:24:00;5.07;;;4.75;;
9986;SDS011;5033;46.310;11.214;2022-12-07T06:26:28;5.10;;;4.70;;
9986;SDS011;5033;46.310;11.214;2022-12-07T06:28:55;4.53;;;4.22;;
9986;SDS011;5033;46.310;11.214;2022-12-07T06:31:23;4.80;;;4.50;;
9986;SDS011;5033;46.310;11.214;2022-12-07T06:33:56;4.28;;;4.03;;
9986;SDS011;5033;46.310;11.214;2022-12-07T06:36:24;5.63;;;5.22;;
9986;SDS011;5033;46.310;11.214;2022-12-07T06:38:51;5.40;;;5.03;;
9986;SDS011;5033;46.310;11.214;2022-12-07T06:41:19;5.43;;;5.03;;
9986;SDS011;5033;46.310;11.214;2022-12-07T06:43:46;4.85;;;4.45;;
9986;SDS011;5033;46.310;11.214;2022-12-07T06:46:14;4.60;;;4.30;;
9986;SDS011;5033;46.310;11.214;2022-12-07T06:48:43;4.32;;;4.03;;
9986;SDS011;5033;46.310;11.214;2022-12-07T06:51:12;4.60;;;4.30;;
9986;SDS011;5033;46.310;11.214;2022-12-07T06:53:39;4.15;;;3.85;;
9986;SDS011;5033;46.310;11.214;2022-12-07T06:56:06;4.55;;;4.25;;
9986;SDS011;5033;46.310;11.214;2022-12-07T06:58:33;3.92;;;3.72;;
9986;SDS011;5033;46.310;11.214;2022-12-07T07:01:01;4.32;;;4.03;;
9986;SDS011;5033;46.310;11.214;2022-12-07T07:03:28;3.97;;;3.78;;
9986;SDS011;5033;46.310;11.214;2022-12-07T07:05:55;4.05;;;3.85;;
9986;SDS011;5033;46.310;11.214;2022-12-07T07:08:24;4.60;;;4.20;;
9986;SDS011;5033;46.310;11.214;2022-12-07T07:10:51;4.47;;;4.18;;
9986;SDS011;5033;46.310;11.214;2022-12-07T07:13:19;4.63;;;4.32;;
9986;SDS011;5033;46.310;11.214;2022-12-07T07:15:47;5.78;;;5.38;;
9986;SDS011;5033;46.310;11.214;2022-12-07T07:18:14;5.55;;;5.15;;
9986;SDS011;5033;46.310;11.214;2022-12-07T07:20:42;6.15;;;5.65;;
9986;SDS011;5033;46.310;11.214;2022-12-07T07:23:10;6.07;;;5.68;;
9986;SDS011;5033;46.310;11.214;2022-12-07T07:25:39;5.43;;;5.03;;
9986;SDS011;5033;46.310;11.214;2022-12-07T07:28:06;5.47;;;5.07;;
9986;SDS011;5033;46.310;11.214;2022-12-07T07:30:33;5.55;;;5.15;;
9986;SDS011;5033;46.310;11.214;2022-12-07T07:33:01;4.85;;;4.50;;
9986;SDS011;5033;46.310;11.214;2022-12-07T07:35:30;4.60;;;4.30;;
9986;SDS011;5033;46.310;11.214;2022-12-07T07:37:59;4.30;;;4.03;;
9986;SDS011;5033;46.310;11.214;2022-12-07T07:40:27;4.25;;;4.03;;
9986;SDS011;5033;46.310;11.214;2022-12-07T07:42:57;4.55;;;4.28;;
9986;SDS011;5033;46.310;11.214;2022-12-07T07:45:25;4.25;;;3.95;;
9986;SDS011;5033;46.310;11.214;2022-12-07T07:47:53;4.47;;;4.18;;
9986;SDS011;5033;46.310;11.214;2022-12-07T07:50:22;4.63;;;4.30;;
9986;SDS011;5033;46.310;11.214;2022-12-07T07:52:49;4.18;;;3.88;;
9986;SDS011;5033;46.310;11.214;2022-12-07T07:55:17;4.80;;;4.50;;
9986;SDS011;5033;46.310;11.214;2022-12-07T07:57:45;4.75;;;4.45;;
9986;SDS011;5033;46.310;11.214;2022-12-07T08:00:15;5.32;;;4.90;;
9986;SDS011;5033;46.310;11.214;2022-12-07T08:02:43;5.40;;;4.70;;
9986;SDS011;5033;46.310;11.214;2022-12-07T08:05:11;4.15;;;3.95;;
9986;SDS011;5033;46.310;11.214;2022-12-07T08:07:39;4.75;;;4.35;;
9986;SDS011;5033;46.310;11.214;2022-12-07T08:10:07;4.50;;;4.07;;
9986;SDS011;5033;46.310;11.214;2022-12-07T08:12:38;4.93;;;4.50;;
9986;SDS011;5033;46.310;11.214;2022-12-07T08:15:28;5.07;;;4.68;;
9986;SDS011;5033;46.310;11.214;2022-12-07T08:17:56;5.15;;;4.75;;
9986;SDS011;5033;46.310;11.214;2022-12-07T08:20:23;4.65;;;4.25;;
9986;SDS011;5033;46.310;11.214;2022-12-07T08:22:50;4.65;;;4.32;;
9986;SDS011;5033;46.310;11.214;2022-12-07T08:25:17;4.47;;;4.18;;
9986;SDS011;5033;46.310;11.214;2022-12-07T08:27:45;5.55;;;5.10;;
9986;SDS011;5033;46.310;11.214;2022-12-07T08:30:12;5.47;;;5.07;;
9986;SDS011;5033;46.310;11.214;2022-12-07T08:32:41;6.55;;;5.80;;
9986;SDS011;5033;46.310;11.214;2022-12-07T08:35:08;5.38;;;4.97;;
9986;SDS011;5033;46.310;11.214;2022-12-07T08:37:35;5.82;;;5.32;;
9986;SDS011;5033;46.310;11.214;2022-12-07T08:40:03;5.82;;;4.97;;
9986;SDS011;5033;46.310;11.214;2022-12-07T08:42:31;7.32;;;5.00;;
9986;SDS011;5033;46.310;11.214;2022-12-07T08:45:05;5.50;;;5.00;;
9986;SDS011;5033;46.310;11.214;2022-12-07T08:47:33;4.93;;;4.50;;
9986;SDS011;5033;46.310;11.214;2022-12-07T08:50:02;4.50;;;4.20;;
9986;SDS011;5033;46.310;11.214;2022-12-07T08:52:32;4.25;;;3.95;;
9986;SDS011;5033;46.310;11.214;2022-12-07T08:55:00;4.68;;;4.28;;
9986;SDS011;5033;46.310;11.214;2022-12-07T08:57:29;5.18;;;4.68;;
9986;SDS011;5033;46.310;11.214;2022-12-07T08:59:58;5.95;;;5.22;;
9986;SDS011;5033;46.310;11.214;2022-12-07T09:02:25;5.38;;;4.88;;
9986;SDS011;5033;46.310;11.214;2022-12-07T09:04:52;5.50;;;5.00;;
9986;SDS011;5033;46.310;11.214;2022-12-07T09:07:21;4.70;;;4.30;;
9986;SDS011;5033;46.310;11.214;2022-12-07T09:09:48;3.92;;;3.63;;
9986;SDS011;5033;46.310;11.214;2022-12-07T09:12:15;4.63;;;4.05;;
9986;SDS011;5033;46.310;11.214;2022-12-07T09:14:42;4.20;;;3.90;;
9986;SDS011;5033;46.310;11.214;2022-12-07T09:17:10;4.85;;;3.83;;
9986;SDS011;5033;46.310;11.214;2022-12-07T09:19:38;3.75;;;3.45;;
9986;SDS011;5033;46.310;11.214;2022-12-07T09:22:06;4.30;;;3.90;;
9986;SDS011;5033;46.310;11.214;2022-12-07T09:24:35;4.20;;;3.80;;
9986;SDS011;5033;46.310;11.214;2022-12-07T09:27:02;4.10;;;3.80;;
9986;SDS011;5033;46.310;11.214;2022-12-07T09:29:29;4.45;;;4.05;;
9986;SDS011;5033;46.310;11.214;2022-12-07T09:31:56;4.13;;;3.67;;
9986;SDS011;5033;46.310;11.214;2022-12-07T09:34:23;3.78;;;3.42;;
9986;SDS011;5033;46.310;11.214;2022-12-07T09:36:51;3.20;;;2.90;;
9986;SDS011;5033;46.310;11.214;2022-12-07T09:39:18;5.07;;;3.03;;
9986;SDS011;5033;46.310;11.214;2022-12-07T09:41:47;5.10;;;3.47;;
9986;SDS011;5033;46.310;11.214;2022-12-07T09:44:21;4.00;;;3.30;;
9986;SDS011;5033;46.310;11.214;2022-12-07T09:46:51;3.75;;;2.90;;
9986;SDS011;5033;46.310;11.214;2022-12-07T09:49:19;3.85;;;3.55;;
9986;SDS011;5033;46.310;11.214;2022-12-07T09:51:57;4.63;;;3.45;;
9986;SDS011;5033;46.310;11.214;2022-12-07T09:54:27;4.45;;;3.45;;
9986;SDS011;5033;46.310;11.214;2022-12-07T09:56:57;5.72;;;3.55;;
9986;SDS011;5033;46.310;11.214;2022-12-07T09:59:25;3.35;;;3.10;;
9986;SDS011;5033;46.310;11.214;2022-12-07T10:01:53;3.78;;;3.47;;
9986;SDS011;5033;46.310;11.214;2022-12-07T10:04:21;3.58;;;3.30;;
9986;SDS011;5033;46.310;11.214;2022-12-07T10:06:50;3.92;;;3.50;;
9986;SDS011;5033;46.310;11.214;2022-12-07T10:09:18;3.53;;;3.22;;
9986;SDS011;5033;46.310;11.214;2022-12-07T10:12:05;5.30;;;3.75;;
9986;SDS011;5033;46.310;11.214;2022-12-07T10:14:35;4.30;;;3.22;;
9986;SDS011;5033;46.310;11.214;2022-12-07T10:17:17;4.28;;;3.88;;
9986;SDS011;5033;46.310;11.214;2022-12-07T10:20:08;4.53;;;3.80;;
9986;SDS011;5033;46.310;11.214;2022-12-07T10:22:59;4.63;;;4.22;;
9986;SDS011;5033;46.310;11.214;2022-12-07T10:25:28;4.53;;;4.13;;
9986;SDS011;5033;46.310;11.214;2022-12-07T10:28:00;4.80;;;3.63;;
9986;SDS011;5033;46.310;11.214;2022-12-07T10:30:49;4.30;;;3.90;;
9986;SDS011;5033;46.310;11.214;2022-12-07T10:33:32;4.57;;;3.95;;
9986;SDS011;5033;46.310;11.214;2022-12-07T10:36:14;4.10;;;3.70;;
9986;SDS011;5033;46.310;11.214;2022-12-07T10:38:44;4.00;;;3.70;;
9986;SDS011;5033;46.310;11.214;2022-12-07T10:41:13;4.35;;;4.05;;
9986;SDS011;5033;46.310;11.214;2022-12-07T10:43:52;4.65;;;4.25;;
9986;SDS011;5033;46.310;11.214;2022-12-07T10:46:25;4.70;;;4.15;;
9986;SDS011;5033;46.310;11.214;2022-12-07T10:49:06;6.38;;;4.07;;
9986;SDS011;5033;46.310;11.214;2022-12-07T10:51:45;5.28;;;4.78;;
9986;SDS011;5033;46.310;11.214;2022-12-07T10:54:21;5.03;;;4.45;;
9986;SDS011;5033;46.310;11.214;2022-12-07T10:57:05;5.65;;;4.55;;
9986;SDS011;5033;46.310;11.214;2022-12-07T11:00:00;4.90;;;4.05;;
9986;SDS011;5033;46.310;11.214;2022-12-07T11:05:34;4.30;;;3.90;;
9986;SDS011;5033;46.310;11.214;2022-12-07T11:08:12;5.38;;;4.07;;
9986;SDS011;5033;46.310;11.214;2022-12-07T11:10:49;3.97;;;3.50;;
9986;SDS011;5033;46.310;11.214;2022-12-07T11:13:26;5.57;;;3.83;;
9986;SDS011;5033;46.310;11.214;2022-12-07T11:16:08;4.00;;;3.70;;
9986;SDS011;5033;46.310;11.214;2022-12-07T11:18:49;4.40;;;4.10;;
9986;SDS011;5033;46.310;11.214;2022-12-07T11:21:27;4.13;;;3.83;;
9986;SDS011;5033;46.310;11.214;2022-12-07T11:24:03;5.32;;;3.72;;
9986;SDS011;5033;46.310;11.214;2022-12-07T11:26:41;4.30;;;3.90;;
9986;SDS011;5033;46.310;11.214;2022-12-07T11:29:27;6.53;;;4.20;;
9986;SDS011;5033;46.310;11.214;2022-12-07T11:32:07;5.13;;;3.88;;
9986;SDS011;5033;46.310;11.214;2022-12-07T11:34:46;3.95;;;3.65;;
9986;SDS011;5033;46.310;11.214;2022-12-07T11:37:25;4.32;;;3.50;;
9986;SDS011;5033;46.310;11.214;2022-12-07T11:39:57;5.20;;;4.13;;
9986;SDS011;5033;46.310;11.214;2022-12-07T11:42:29;4.20;;;3.88;;
9986;SDS011;5033;46.310;11.214;2022-12-07T11:45:03;5.30;;;4.35;;
9986;SDS011;5033;46.310;11.214;2022-12-07T11:47:43;3.95;;;3.63;;
9986;SDS011;5033;46.310;11.214;2022-12-07T11:50:21;4.03;;;3.63;;
9986;SDS011;5033;46.310;11.214;2022-12-07T11:52:53;4.68;;;4.20;;
9986;SDS011;5033;46.310;11.214;2022-12-07T11:55:26;4.65;;;4.10;;
9986;SDS011;5033;46.310;11.214;2022-12-07T11:58:00;7.22;;;4.00;;
9986;SDS011;5033;46.310;11.214;2022-12-07T12:00:31;3.90;;;3.50;;
9986;SDS011;5033;46.310;11.214;2022-12-07T12:03:07;4.50;;;4.10;;
9986;SDS011;5033;46.310;11.214;2022-12-07T12:05:41;4.18;;;3.88;;
9986;SDS011;5033;46.310;11.214;2022-12-07T12:08:12;4.18;;;3.88;;
9986;SDS011;5033;46.310;11.214;2022-12-07T12:10:47;3.72;;;3.42;;
9986;SDS011;5033;46.310;11.214;2022-12-07T12:13:25;3.70;;;3.40;;
9986;SDS011;5033;46.310;11.214;2022-12-07T12:16:22;4.00;;;3.70;;
9986;SDS011;5033;46.310;11.214;2022-12-07T12:19:23;3.38;;;3.08;;
9986;SDS011;5033;46.310;11.214;2022-12-07T12:22:06;3.58;;;3.28;;
9986;SDS011;5033;46.310;11.214;2022-12-07T12:24:41;3.67;;;3.38;;
9986;SDS011;5033;46.310;11.214;2022-12-07T12:27:18;5.18;;;3.88;;
9986;SDS011;5033;46.310;11.214;2022-12-07T12:29:51;4.03;;;3.65;;
9986;SDS011;5033;46.310;11.214;2022-12-07T12:32:20;3.90;;;3.60;;
9986;SDS011;5033;46.310;11.214;2022-12-07T12:35:02;3.85;;;3.55;;
9986;SDS011;5033;46.310;11.214;2022-12-07T12:37:46;3.47;;;3.13;;
9986;SDS011;5033;46.310;11.214;2022-12-07T12:55:20;3.92;;;3.42;;
9986;SDS011;5033;46.310;11.214;2022-12-07T13:04:21;4.80;;;3.67;;
9986;SDS011;5033;46.310;11.214;2022-12-07T13:06:56;4.68;;;3.75;;
9986;SDS011;5033;46.310;11.214;2022-12-07T13:09:25;4.40;;;4.00;;
9986;SDS011;5033;46.310;11.214;2022-12-07T13:12:00;4.65;;;3.72;;
9986;SDS011;5033;46.310;11.214;2022-12-07T13:14:40;5.03;;;3.92;;
9986;SDS011;5033;46.310;11.214;2022-12-07T13:23:16;4.35;;;4.00;;
9986;SDS011;5033;46.310;11.214;2022-12-07T13:28:44;3.78;;;3.47;;
9986;SDS011;5033;46.310;11.214;2022-12-07T13:31:14;3.67;;;3.38;;
9986;SDS011;5033;46.310;11.214;2022-12-07T13:33:58;3.88;;;3.42;;
9986;SDS011;5033;46.310;11.214;2022-12-07T13:36:26;4.07;;;3.75;;
9986;SDS011;5033;46.310;11.214;2022-12-07T13:38:57;4.45;;;4.10;;
9986;SDS011;5033;46.310;11.214;2022-12-07T13:41:26;4.45;;;4.00;;
9986;SDS011;5033;46.310;11.214;2022-12-07T13:43:59;4.07;;;3.50;;
9986;SDS011;5033;46.310;11.214;2022-12-07T13:46:31;3.88;;;3.50;;
9986;SDS011;5033;46.310;11.214;2022-12-07T13:49:13;3.67;;;3.38;;
9986;SDS011;5033;46.310;11.214;2022-12-07T13:51:46;3.60;;;3.30;;
9986;SDS011;5033;46.310;11.214;2022-12-07T13:54:13;4.03;;;3.63;;
9986;SDS011;5033;46.310;11.214;2022-12-07T13:56:41;4.10;;;3.70;;
9986;SDS011;5033;46.310;11.214;2022-12-07T13:59:12;3.75;;;3.35;;
9986;SDS011;5033;46.310;11.214;2022-12-07T14:01:42;3.45;;;3.20;;
9986;SDS011;5033;46.310;11.214;2022-12-07T14:04:31;3.67;;;3.38;;
9986;SDS011;5033;46.310;11.214;2022-12-07T14:07:00;3.72;;;3.42;;
9986;SDS011;5033;46.310;11.214;2022-12-07T14:09:52;5.18;;;3.60;;
9986;SDS011;5033;46.310;11.214;2022-12-07T14:12:21;4.70;;;3.95;;
9986;SDS011;5033;46.310;11.214;2022-12-07T14:14:50;4.50;;;4.10;;
9986;SDS011;5033;46.310;11.214;2022-12-07T14:17:19;4.50;;;4.10;;
9986;SDS011;5033;46.310;11.214;2022-12-07T14:19:49;5.25;;;4.13;;
9986;SDS011;5033;46.310;11.214;2022-12-07T14:22:22;3.97;;;3.67;;
9986;SDS011;5033;46.310;11.214;2022-12-07T14:27:50;5.22;;;3.80;;
9986;SDS011;5033;46.310;11.214;2022-12-07T14:30:22;4.10;;;3.33;;
9986;SDS011;5033;46.310;11.214;2022-12-07T14:32:52;4.65;;;4.25;;
9986;SDS011;5033;46.310;11.214;2022-12-07T14:35:21;3.85;;;3.55;;
9986;SDS011;5033;46.310;11.214;2022-12-07T14:37:48;3.40;;;3.20;;
9986;SDS011;5033;46.310;11.214;2022-12-07T14:40:17;3.92;;;3.63;;
9986;SDS011;5033;46.310;11.214;2022-12-07T14:42:46;3.95;;;3.70;;
9986;SDS011;5033;46.310;11.214;2022-12-07T14:45:16;4.05;;;3.72;;
9986;SDS011;5033;46.310;11.214;2022-12-07T14:47:46;3.97;;;3.58;;
9986;SDS011;5033;46.310;11.214;2022-12-07T14:50:14;16.45;;;11.77;;
9986;SDS011;5033;46.310;11.214;2022-12-07T14:52:43;9.88;;;8.18;;
9986;SDS011;5033;46.310;11.214;2022-12-07T14:55:14;7.20;;;6.50;;
9986;SDS011;5033;46.310;11.214;2022-12-07T14:57:46;10.40;;;7.50;;
9986;SDS011;5033;46.310;11.214;2022-12-07T15:00:14;17.42;;;12.65;;
9986;SDS011;5033;46.310;11.214;2022-12-07T15:02:42;30.40;;;20.42;;
9986;SDS011;5033;46.310;11.214;2022-12-07T15:05:11;36.20;;;24.73;;
9986;SDS011;5033;46.310;11.214;2022-12-07T15:07:38;82.28;;;51.67;;
9986;SDS011;5033;46.310;11.214;2022-12-07T15:10:08;77.88;;;49.58;;
9986;SDS011;5033;46.310;11.214;2022-12-07T15:12:43;50.80;;;36.13;;
9986;SDS011;5033;46.310;11.214;2022-12-07T15:15:10;36.05;;;27.08;;
9986;SDS011;5033;46.310;11.214;2022-12-07T15:17:37;29.08;;;21.90;;
9986;SDS011;5033;46.310;11.214;2022-12-07T15:20:05;24.13;;;18.90;;
9986;SDS011;5033;46.310;11.214;2022-12-07T15:22:38;17.55;;;15.15;;
9986;SDS011;5033;46.310;11.214;2022-12-07T15:25:06;17.77;;;14.85;;
9986;SDS011;5033;46.310;11.214;2022-12-07T15:27:34;15.98;;;13.50;;
9986;SDS011;5033;46.310;11.214;2022-12-07T15:30:01;16.63;;;12.35;;
9986;SDS011;5033;46.310;11.214;2022-12-07T15:32:29;19.33;;;13.10;;
9986;SDS011;5033;46.310;11.214;2022-12-07T15:34:56;25.35;;;15.30;;
9986;SDS011;5033;46.310;11.214;2022-12-07T15:37:23;19.55;;;12.77;;
9986;SDS011;5033;46.310;11.214;2022-12-07T15:39:52;16.30;;;11.77;;
9986;SDS011;5033;46.310;11.214;2022-12-07T15:42:19;16.85;;;11.23;;
9986;SDS011;5033;46.310;11.214;2022-12-07T15:44:46;21.30;;;12.07;;
9986;SDS011;5033;46.310;11.214;2022-12-07T15:47:30;22.05;;;13.40;;
9986;SDS011;5033;46.310;11.214;2022-12-07T15:49:57;23.05;;;13.50;;
9986;SDS011;5033;46.310;11.214;2022-12-07T15:52:24;24.42;;;14.00;;
9986;SDS011;5033;46.310;11.214;2022-12-07T15:54:53;25.42;;;13.30;;
9986;SDS011;5033;46.310;11.214;2022-12-07T15:57:25;22.52;;;13.77;;
9986;SDS011;5033;46.310;11.214;2022-12-07T15:59:52;18.40;;;12.20;;
9986;SDS011;5033;46.310;11.214;2022-12-07T16:02:19;18.13;;;12.50;;
9986;SDS011;5033;46.310;11.214;2022-12-07T16:04:47;14.82;;;10.60;;
9986;SDS011;5033;46.310;11.214;2022-12-07T16:07:15;13.05;;;9.95;;
9986;SDS011;5033;46.310;11.214;2022-12-07T16:09:43;11.85;;;8.88;;